A- A+ FrançaisEnglishEspañol中国

Services sur Internet Soldes sur Internet Des idées de cadeaux Météo Météo aéro

La météo à : Autours de vous Tarbes-Lourdes-PyrénéesPontoise-Cormeilles-En-VexinChateauroux-Deols Paris-Orly

manche à air

La météo aéronautique pour les pilotes, la préparation du vol avec les METAR (METeorological Aerodrome Report, message d'observation des conditions météorologiques pour l'aviation) et Les TAF (Terminal Aerodrome Forecast : message de prévision à court terme des conditions météorologiques pour l'aviation). Et les autres ressources comme les VAC (Visual Approch Chart) et les NOTAM (Notice To Airman) pour préprer les vols.

Aéroport Kenora (Canada) / OACI CYQK/ IATA YQK

L'altitude de l'aéroport Kenora est de 406 m = 1332 ft. Il est situé à proximité de Kenora (Canada). La météo générale à 5 jours est disponible pour Kenora situé à 9 km.

METAR de l'aéroport Kenora - CYQK

CYQK 291000Z 06004KT 20SM OVC076 05/02 A3038 RMK AC8 SLP303

Décodage du METAR de l'aéroport Kenora (CA)

METAR émis par CYQK le dimanche 29 septembre 2019 à 10:00 heure TU. Attention ce METAR est obsolète car il a été émis il y a 16 heure et 11 minutes.

La visibilité est de 32.2 km = 20 sm.

La température est de 5°C = 41 °F et le point rosée est de 2°C = 36 °F . Ce qui correspond à 81% d'humidité relative.

Le QNH est de 1029 hPa = 30.39 inHg

Vent de 4 kt = 7 km/h, orienté à 60°.

Nuages : Couverture nuageuse soudée à 7600 ft = 2320 mètres.

RMK AC8 SLP303

TAF de l'aéroport Kenora - CYQK

CYQK 150822Z 1508/1520 VRB03KT P6SM SCT008 OVC025 TEMPO 1508/1517 3SM -SHRASN BR BKN007 OVC020 PROB30 1508/1513 1/2SM -DZ FG VV002 FM151700 35010KT P6SM SCT010 BKN025 TEMPO 1517/1520 5SM -SHRA BR BKN009 OVC020 RMK NXT FCST BY 151400Z

CYQK 150822Z 1508/1520 VRB03KT P6SM nuages épars à 008 couverture nuageuse soudée à 025 temporairement 1508/1517 3SM faible SHRASN brume couverture nuageuse fragmentée à 007 couverture nuageuse soudée à 020 probabilité de 30% d'avoir 1508/1513 1/2SM faible DZ brouillard VV002 FM151700 35010KT P6SM nuages épars à 010 couverture nuageuse fragmentée à 025 temporairement 1517/1520 5SM faible SHRA brume couverture nuageuse fragmentée à 009 couverture nuageuse soudée à 020 remarques NXT trombe ST BY 151400Z

Aéroport à proximité de Kenora

Météo générale à 5 jours à Kenora (9 km)Aéroport Dryden (116 km)Aéroport Warroad Intl Carson (118 km)Aéroport Baudette (119 km)Aéroport Ear Falls (125 km)Aéroport Lac Du Bonnet (130 km)Aéroport Roseau Mun Billberg (142 km)

Vue aérienne de l'aéroport Kenora

NOTAM de l'aéroport Kenora

Les NOTAM sont fournis sans aucune garantie de leur actualité. Le pilote est le seul responsable de la vérification de sa validité avant de l'utiliser opérationnellement pour préparer un vol ou l'utiliser lors de sa navigation.

Pas de NOTAM

Sources des données